sensor_id;sensor_type;location;lat;lon;timestamp;P1;durP1;ratioP1;P2;durP2;ratioP2
7957;SDS011;4024;52.172;5.378;2024-01-27T00:01:22;16.83;;;4.90;;
7957;SDS011;4024;52.172;5.378;2024-01-27T00:03:47;13.57;;;4.90;;
7957;SDS011;4024;52.172;5.378;2024-01-27T00:06:13;17.90;;;5.43;;
7957;SDS011;4024;52.172;5.378;2024-01-27T00:08:38;19.33;;;5.80;;
7957;SDS011;4024;52.172;5.378;2024-01-27T00:11:04;24.43;;;7.47;;
7957;SDS011;4024;52.172;5.378;2024-01-27T00:13:30;17.60;;;6.63;;
7957;SDS011;4024;52.172;5.378;2024-01-27T00:15:55;12.80;;;6.30;;
7957;SDS011;4024;52.172;5.378;2024-01-27T00:18:21;16.80;;;6.13;;
7957;SDS011;4024;52.172;5.378;2024-01-27T00:20:47;22.63;;;6.10;;
7957;SDS011;4024;52.172;5.378;2024-01-27T00:23:12;18.73;;;5.40;;
7957;SDS011;4024;52.172;5.378;2024-01-27T00:25:38;17.97;;;5.50;;
7957;SDS011;4024;52.172;5.378;2024-01-27T00:28:03;13.07;;;4.70;;
7957;SDS011;4024;52.172;5.378;2024-01-27T00:30:29;19.67;;;5.47;;
7957;SDS011;4024;52.172;5.378;2024-01-27T00:32:55;16.03;;;5.20;;
7957;SDS011;4024;52.172;5.378;2024-01-27T00:35:20;13.20;;;4.97;;
7957;SDS011;4024;52.172;5.378;2024-01-27T00:37:47;16.33;;;4.77;;
7957;SDS011;4024;52.172;5.378;2024-01-27T00:40:12;23.23;;;5.30;;
7957;SDS011;4024;52.172;5.378;2024-01-27T00:42:40;17.67;;;5.50;;
7957;SDS011;4024;52.172;5.378;2024-01-27T00:45:06;12.23;;;5.37;;
7957;SDS011;4024;52.172;5.378;2024-01-27T00:47:32;12.30;;;5.33;;
7957;SDS011;4024;52.172;5.378;2024-01-27T00:49:58;15.37;;;5.70;;
7957;SDS011;4024;52.172;5.378;2024-01-27T00:52:23;19.43;;;5.73;;
7957;SDS011;4024;52.172;5.378;2024-01-27T00:54:49;20.80;;;5.60;;
7957;SDS011;4024;52.172;5.378;2024-01-27T00:57:15;19.17;;;5.30;;
7957;SDS011;4024;52.172;5.378;2024-01-27T00:59:41;20.07;;;5.53;;
7957;SDS011;4024;52.172;5.378;2024-01-27T01:02:06;21.47;;;5.43;;
7957;SDS011;4024;52.172;5.378;2024-01-27T01:04:32;20.17;;;5.23;;
7957;SDS011;4024;52.172;5.378;2024-01-27T01:06:58;12.90;;;4.27;;
7957;SDS011;4024;52.172;5.378;2024-01-27T01:09:24;16.07;;;5.13;;
7957;SDS011;4024;52.172;5.378;2024-01-27T01:11:50;13.07;;;4.83;;
7957;SDS011;4024;52.172;5.378;2024-01-27T01:14:15;27.27;;;5.63;;
7957;SDS011;4024;52.172;5.378;2024-01-27T01:16:41;18.73;;;5.37;;
7957;SDS011;4024;52.172;5.378;2024-01-27T01:19:07;16.63;;;5.20;;
7957;SDS011;4024;52.172;5.378;2024-01-27T01:21:32;16.70;;;5.63;;
7957;SDS011;4024;52.172;5.378;2024-01-27T01:23:59;18.13;;;5.43;;
7957;SDS011;4024;52.172;5.378;2024-01-27T01:26:25;14.53;;;5.57;;
7957;SDS011;4024;52.172;5.378;2024-01-27T01:28:50;14.43;;;5.17;;
7957;SDS011;4024;52.172;5.378;2024-01-27T01:31:16;14.63;;;4.60;;
7957;SDS011;4024;52.172;5.378;2024-01-27T01:33:43;15.37;;;5.10;;
7957;SDS011;4024;52.172;5.378;2024-01-27T01:36:09;17.17;;;4.57;;
7957;SDS011;4024;52.172;5.378;2024-01-27T01:38:35;13.07;;;4.67;;
7957;SDS011;4024;52.172;5.378;2024-01-27T01:41:00;15.03;;;4.47;;
7957;SDS011;4024;52.172;5.378;2024-01-27T01:43:26;18.23;;;4.57;;
7957;SDS011;4024;52.172;5.378;2024-01-27T01:45:52;15.80;;;4.00;;
7957;SDS011;4024;52.172;5.378;2024-01-27T01:48:19;21.93;;;4.80;;
7957;SDS011;4024;52.172;5.378;2024-01-27T01:50:45;12.83;;;4.60;;
7957;SDS011;4024;52.172;5.378;2024-01-27T01:53:12;22.60;;;5.57;;
7957;SDS011;4024;52.172;5.378;2024-01-27T01:55:38;14.50;;;4.30;;
7957;SDS011;4024;52.172;5.378;2024-01-27T01:58:04;19.73;;;5.67;;
7957;SDS011;4024;52.172;5.378;2024-01-27T02:00:30;12.43;;;4.43;;
7957;SDS011;4024;52.172;5.378;2024-01-27T02:02:56;13.67;;;4.57;;
7957;SDS011;4024;52.172;5.378;2024-01-27T02:05:21;12.37;;;3.90;;
7957;SDS011;4024;52.172;5.378;2024-01-27T02:07:47;12.87;;;4.67;;
7957;SDS011;4024;52.172;5.378;2024-01-27T02:10:13;19.70;;;5.47;;
7957;SDS011;4024;52.172;5.378;2024-01-27T02:12:44;14.60;;;4.63;;
7957;SDS011;4024;52.172;5.378;2024-01-27T02:15:11;13.97;;;4.70;;
7957;SDS011;4024;52.172;5.378;2024-01-27T02:17:38;23.10;;;4.77;;
7957;SDS011;4024;52.172;5.378;2024-01-27T02:20:05;17.10;;;4.90;;
7957;SDS011;4024;52.172;5.378;2024-01-27T02:22:32;19.43;;;5.40;;
7957;SDS011;4024;52.172;5.378;2024-01-27T02:25:04;14.50;;;4.20;;
7957;SDS011;4024;52.172;5.378;2024-01-27T02:27:30;13.03;;;4.63;;
7957;SDS011;4024;52.172;5.378;2024-01-27T02:29:56;21.93;;;4.70;;
7957;SDS011;4024;52.172;5.378;2024-01-27T02:32:21;19.17;;;5.20;;
7957;SDS011;4024;52.172;5.378;2024-01-27T02:34:47;12.93;;;4.03;;
7957;SDS011;4024;52.172;5.378;2024-01-27T02:37:12;15.90;;;4.80;;
7957;SDS011;4024;52.172;5.378;2024-01-27T02:39:39;12.77;;;4.13;;
7957;SDS011;4024;52.172;5.378;2024-01-27T02:42:05;18.00;;;5.00;;
7957;SDS011;4024;52.172;5.378;2024-01-27T02:44:31;18.10;;;4.90;;
7957;SDS011;4024;52.172;5.378;2024-01-27T02:46:56;16.40;;;4.13;;
7957;SDS011;4024;52.172;5.378;2024-01-27T02:49:22;20.30;;;4.77;;
7957;SDS011;4024;52.172;5.378;2024-01-27T02:51:48;13.13;;;4.07;;
7957;SDS011;4024;52.172;5.378;2024-01-27T02:54:14;16.00;;;4.37;;
7957;SDS011;4024;52.172;5.378;2024-01-27T02:56:40;16.10;;;4.80;;
7957;SDS011;4024;52.172;5.378;2024-01-27T02:59:05;17.77;;;4.37;;
7957;SDS011;4024;52.172;5.378;2024-01-27T03:01:31;19.63;;;4.93;;
7957;SDS011;4024;52.172;5.378;2024-01-27T03:03:57;14.70;;;5.30;;
7957;SDS011;4024;52.172;5.378;2024-01-27T03:06:23;15.90;;;4.13;;
7957;SDS011;4024;52.172;5.378;2024-01-27T03:08:48;12.57;;;4.13;;
7957;SDS011;4024;52.172;5.378;2024-01-27T03:11:14;16.27;;;4.30;;
7957;SDS011;4024;52.172;5.378;2024-01-27T03:13:39;12.63;;;4.63;;
7957;SDS011;4024;52.172;5.378;2024-01-27T03:16:10;14.13;;;4.20;;
7957;SDS011;4024;52.172;5.378;2024-01-27T03:18:36;17.33;;;4.33;;
7957;SDS011;4024;52.172;5.378;2024-01-27T03:21:02;16.13;;;4.17;;
7957;SDS011;4024;52.172;5.378;2024-01-27T03:23:28;20.00;;;4.73;;
7957;SDS011;4024;52.172;5.378;2024-01-27T03:25:54;12.80;;;4.47;;
7957;SDS011;4024;52.172;5.378;2024-01-27T03:28:19;12.50;;;4.13;;
7957;SDS011;4024;52.172;5.378;2024-01-27T03:30:45;18.20;;;4.43;;
7957;SDS011;4024;52.172;5.378;2024-01-27T03:33:11;17.00;;;4.33;;
7957;SDS011;4024;52.172;5.378;2024-01-27T03:35:37;21.67;;;4.77;;
7957;SDS011;4024;52.172;5.378;2024-01-27T03:38:05;13.63;;;4.53;;
7957;SDS011;4024;52.172;5.378;2024-01-27T03:40:31;24.03;;;4.57;;
7957;SDS011;4024;52.172;5.378;2024-01-27T03:42:56;15.50;;;3.93;;
7957;SDS011;4024;52.172;5.378;2024-01-27T03:45:22;14.23;;;4.10;;
7957;SDS011;4024;52.172;5.378;2024-01-27T03:47:48;12.73;;;4.07;;
7957;SDS011;4024;52.172;5.378;2024-01-27T03:50:13;14.10;;;4.50;;
7957;SDS011;4024;52.172;5.378;2024-01-27T03:52:39;11.17;;;4.27;;
7957;SDS011;4024;52.172;5.378;2024-01-27T03:55:06;13.23;;;4.60;;
7957;SDS011;4024;52.172;5.378;2024-01-27T03:57:31;13.90;;;4.17;;
7957;SDS011;4024;52.172;5.378;2024-01-27T03:59:57;14.40;;;5.00;;
7957;SDS011;4024;52.172;5.378;2024-01-27T04:02:23;12.20;;;4.60;;
7957;SDS011;4024;52.172;5.378;2024-01-27T04:04:48;11.37;;;4.40;;
7957;SDS011;4024;52.172;5.378;2024-01-27T04:07:14;15.70;;;5.20;;
7957;SDS011;4024;52.172;5.378;2024-01-27T04:09:39;18.60;;;4.97;;
7957;SDS011;4024;52.172;5.378;2024-01-27T04:12:05;12.47;;;4.83;;
7957;SDS011;4024;52.172;5.378;2024-01-27T04:14:31;18.17;;;5.23;;
7957;SDS011;4024;52.172;5.378;2024-01-27T04:16:56;15.53;;;5.00;;
7957;SDS011;4024;52.172;5.378;2024-01-27T04:19:22;13.50;;;5.20;;
7957;SDS011;4024;52.172;5.378;2024-01-27T04:21:47;17.50;;;5.07;;
7957;SDS011;4024;52.172;5.378;2024-01-27T04:24:13;19.77;;;6.10;;
7957;SDS011;4024;52.172;5.378;2024-01-27T04:26:39;21.57;;;5.83;;
7957;SDS011;4024;52.172;5.378;2024-01-27T04:29:04;15.00;;;5.53;;
7957;SDS011;4024;52.172;5.378;2024-01-27T04:31:30;24.17;;;7.77;;
7957;SDS011;4024;52.172;5.378;2024-01-27T04:33:58;14.63;;;5.60;;
7957;SDS011;4024;52.172;5.378;2024-01-27T04:36:27;12.43;;;5.60;;
7957;SDS011;4024;52.172;5.378;2024-01-27T04:38:56;16.53;;;6.87;;
7957;SDS011;4024;52.172;5.378;2024-01-27T04:41:22;14.30;;;5.90;;
7957;SDS011;4024;52.172;5.378;2024-01-27T04:43:47;14.07;;;5.67;;
7957;SDS011;4024;52.172;5.378;2024-01-27T04:46:13;16.07;;;6.17;;
7957;SDS011;4024;52.172;5.378;2024-01-27T04:48:38;16.20;;;7.07;;
7957;SDS011;4024;52.172;5.378;2024-01-27T04:51:04;21.57;;;7.83;;
7957;SDS011;4024;52.172;5.378;2024-01-27T04:53:30;21.47;;;7.27;;
7957;SDS011;4024;52.172;5.378;2024-01-27T04:55:55;17.00;;;7.40;;
7957;SDS011;4024;52.172;5.378;2024-01-27T04:58:21;23.80;;;8.37;;
7957;SDS011;4024;52.172;5.378;2024-01-27T05:00:46;14.03;;;7.30;;
7957;SDS011;4024;52.172;5.378;2024-01-27T05:03:12;21.63;;;7.83;;
7957;SDS011;4024;52.172;5.378;2024-01-27T05:05:41;17.53;;;8.07;;
7957;SDS011;4024;52.172;5.378;2024-01-27T05:08:08;16.33;;;7.77;;
7957;SDS011;4024;52.172;5.378;2024-01-27T05:10:34;21.80;;;7.90;;
7957;SDS011;4024;52.172;5.378;2024-01-27T05:13:01;27.67;;;8.33;;
7957;SDS011;4024;52.172;5.378;2024-01-27T05:15:27;14.87;;;7.47;;
7957;SDS011;4024;52.172;5.378;2024-01-27T05:17:52;18.17;;;8.57;;
7957;SDS011;4024;52.172;5.378;2024-01-27T05:20:18;15.77;;;7.93;;
7957;SDS011;4024;52.172;5.378;2024-01-27T05:22:44;22.23;;;8.60;;
7957;SDS011;4024;52.172;5.378;2024-01-27T05:25:10;20.23;;;8.23;;
7957;SDS011;4024;52.172;5.378;2024-01-27T05:27:37;15.30;;;7.77;;
7957;SDS011;4024;52.172;5.378;2024-01-27T05:30:03;16.73;;;8.27;;
7957;SDS011;4024;52.172;5.378;2024-01-27T05:32:30;20.10;;;8.70;;
7957;SDS011;4024;52.172;5.378;2024-01-27T05:34:56;22.37;;;7.83;;
7957;SDS011;4024;52.172;5.378;2024-01-27T05:37:21;19.33;;;8.13;;
7957;SDS011;4024;52.172;5.378;2024-01-27T05:39:47;23.17;;;8.60;;
7957;SDS011;4024;52.172;5.378;2024-01-27T05:42:13;19.40;;;7.87;;
7957;SDS011;4024;52.172;5.378;2024-01-27T05:44:39;18.67;;;8.43;;
7957;SDS011;4024;52.172;5.378;2024-01-27T05:47:05;17.93;;;8.53;;
7957;SDS011;4024;52.172;5.378;2024-01-27T05:49:31;18.17;;;8.47;;
7957;SDS011;4024;52.172;5.378;2024-01-27T05:51:57;20.73;;;8.00;;
7957;SDS011;4024;52.172;5.378;2024-01-27T05:54:23;18.03;;;8.53;;
7957;SDS011;4024;52.172;5.378;2024-01-27T05:56:49;14.93;;;8.40;;
7957;SDS011;4024;52.172;5.378;2024-01-27T05:59:15;19.30;;;9.03;;
7957;SDS011;4024;52.172;5.378;2024-01-27T06:01:40;15.80;;;8.33;;
7957;SDS011;4024;52.172;5.378;2024-01-27T06:04:08;18.13;;;8.90;;
7957;SDS011;4024;52.172;5.378;2024-01-27T06:06:34;24.37;;;10.23;;
7957;SDS011;4024;52.172;5.378;2024-01-27T06:09:02;21.33;;;10.17;;
7957;SDS011;4024;52.172;5.378;2024-01-27T06:11:28;19.60;;;9.87;;
7957;SDS011;4024;52.172;5.378;2024-01-27T06:13:55;11.83;;;8.77;;
7957;SDS011;4024;52.172;5.378;2024-01-27T06:16:20;22.03;;;8.90;;
7957;SDS011;4024;52.172;5.378;2024-01-27T06:18:46;21.23;;;9.57;;
7957;SDS011;4024;52.172;5.378;2024-01-27T06:21:12;21.27;;;8.87;;
7957;SDS011;4024;52.172;5.378;2024-01-27T06:23:38;18.03;;;8.73;;
7957;SDS011;4024;52.172;5.378;2024-01-27T06:26:07;16.37;;;8.83;;
7957;SDS011;4024;52.172;5.378;2024-01-27T06:28:33;19.37;;;8.50;;
7957;SDS011;4024;52.172;5.378;2024-01-27T06:31:03;16.33;;;9.20;;
7957;SDS011;4024;52.172;5.378;2024-01-27T06:33:29;16.17;;;9.67;;
7957;SDS011;4024;52.172;5.378;2024-01-27T06:35:55;16.27;;;9.50;;
7957;SDS011;4024;52.172;5.378;2024-01-27T06:38:20;24.83;;;9.67;;
7957;SDS011;4024;52.172;5.378;2024-01-27T06:40:46;18.67;;;9.73;;
7957;SDS011;4024;52.172;5.378;2024-01-27T06:43:12;18.17;;;9.37;;
7957;SDS011;4024;52.172;5.378;2024-01-27T06:45:38;19.77;;;9.73;;
7957;SDS011;4024;52.172;5.378;2024-01-27T06:48:04;21.20;;;9.67;;
7957;SDS011;4024;52.172;5.378;2024-01-27T06:50:34;20.70;;;9.50;;
7957;SDS011;4024;52.172;5.378;2024-01-27T06:53:00;18.33;;;9.23;;
7957;SDS011;4024;52.172;5.378;2024-01-27T06:55:26;15.57;;;10.37;;
7957;SDS011;4024;52.172;5.378;2024-01-27T06:57:54;23.20;;;10.43;;
7957;SDS011;4024;52.172;5.378;2024-01-27T07:00:20;18.73;;;9.77;;
7957;SDS011;4024;52.172;5.378;2024-01-27T07:02:46;15.27;;;10.07;;
7957;SDS011;4024;52.172;5.378;2024-01-27T07:05:11;25.63;;;10.63;;
7957;SDS011;4024;52.172;5.378;2024-01-27T07:07:39;23.50;;;10.97;;
7957;SDS011;4024;52.172;5.378;2024-01-27T07:10:09;22.40;;;10.50;;
7957;SDS011;4024;52.172;5.378;2024-01-27T07:12:35;14.40;;;9.63;;
7957;SDS011;4024;52.172;5.378;2024-01-27T07:15:01;18.37;;;10.00;;
7957;SDS011;4024;52.172;5.378;2024-01-27T07:17:27;18.27;;;9.97;;
7957;SDS011;4024;52.172;5.378;2024-01-27T07:19:52;21.17;;;11.37;;
7957;SDS011;4024;52.172;5.378;2024-01-27T07:22:18;28.20;;;11.60;;
7957;SDS011;4024;52.172;5.378;2024-01-27T07:24:44;25.23;;;11.50;;
7957;SDS011;4024;52.172;5.378;2024-01-27T07:27:11;21.80;;;10.60;;
7957;SDS011;4024;52.172;5.378;2024-01-27T07:29:38;22.33;;;11.27;;
7957;SDS011;4024;52.172;5.378;2024-01-27T07:32:04;18.93;;;10.33;;
7957;SDS011;4024;52.172;5.378;2024-01-27T07:34:30;15.97;;;9.97;;
7957;SDS011;4024;52.172;5.378;2024-01-27T07:36:55;21.57;;;11.20;;
7957;SDS011;4024;52.172;5.378;2024-01-27T07:39:21;21.70;;;10.73;;
7957;SDS011;4024;52.172;5.378;2024-01-27T07:41:47;24.17;;;10.83;;
7957;SDS011;4024;52.172;5.378;2024-01-27T07:44:14;20.43;;;11.17;;
7957;SDS011;4024;52.172;5.378;2024-01-27T07:46:40;17.20;;;11.10;;
7957;SDS011;4024;52.172;5.378;2024-01-27T07:49:06;22.37;;;12.00;;
7957;SDS011;4024;52.172;5.378;2024-01-27T07:51:33;26.53;;;11.60;;
7957;SDS011;4024;52.172;5.378;2024-01-27T07:54:06;18.90;;;11.57;;
7957;SDS011;4024;52.172;5.378;2024-01-27T07:56:32;21.63;;;11.90;;
7957;SDS011;4024;52.172;5.378;2024-01-27T07:58:58;22.53;;;11.73;;
7957;SDS011;4024;52.172;5.378;2024-01-27T08:01:24;24.47;;;11.23;;
7957;SDS011;4024;52.172;5.378;2024-01-27T08:03:49;22.43;;;11.40;;
7957;SDS011;4024;52.172;5.378;2024-01-27T08:06:18;20.83;;;11.47;;
7957;SDS011;4024;52.172;5.378;2024-01-27T08:08:47;19.33;;;11.23;;
7957;SDS011;4024;52.172;5.378;2024-01-27T08:11:14;20.67;;;11.50;;
7957;SDS011;4024;52.172;5.378;2024-01-27T08:13:40;22.53;;;10.97;;
7957;SDS011;4024;52.172;5.378;2024-01-27T08:16:09;22.03;;;10.87;;
7957;SDS011;4024;52.172;5.378;2024-01-27T08:18:37;25.00;;;12.13;;
7957;SDS011;4024;52.172;5.378;2024-01-27T08:21:04;21.13;;;11.73;;
7957;SDS011;4024;52.172;5.378;2024-01-27T08:23:29;22.00;;;10.67;;
7957;SDS011;4024;52.172;5.378;2024-01-27T08:25:55;19.47;;;10.43;;
7957;SDS011;4024;52.172;5.378;2024-01-27T08:28:21;23.70;;;10.57;;
7957;SDS011;4024;52.172;5.378;2024-01-27T08:30:47;19.43;;;10.27;;
7957;SDS011;4024;52.172;5.378;2024-01-27T08:33:12;19.33;;;10.13;;
7957;SDS011;4024;52.172;5.378;2024-01-27T08:35:38;25.33;;;10.23;;
7957;SDS011;4024;52.172;5.378;2024-01-27T08:38:04;17.17;;;11.10;;
7957;SDS011;4024;52.172;5.378;2024-01-27T08:40:31;24.33;;;11.17;;
7957;SDS011;4024;52.172;5.378;2024-01-27T08:42:57;24.37;;;10.93;;
7957;SDS011;4024;52.172;5.378;2024-01-27T08:45:22;20.40;;;9.97;;
7957;SDS011;4024;52.172;5.378;2024-01-27T08:47:48;19.73;;;10.43;;
7957;SDS011;4024;52.172;5.378;2024-01-27T08:50:14;21.80;;;10.13;;
7957;SDS011;4024;52.172;5.378;2024-01-27T08:52:39;19.87;;;10.30;;
7957;SDS011;4024;52.172;5.378;2024-01-27T08:55:05;17.53;;;9.37;;
7957;SDS011;4024;52.172;5.378;2024-01-27T08:57:31;18.33;;;10.30;;
7957;SDS011;4024;52.172;5.378;2024-01-27T08:59:56;17.47;;;9.70;;
7957;SDS011;4024;52.172;5.378;2024-01-27T09:02:22;19.80;;;9.93;;
7957;SDS011;4024;52.172;5.378;2024-01-27T09:04:48;16.73;;;9.67;;
7957;SDS011;4024;52.172;5.378;2024-01-27T09:07:14;20.30;;;10.10;;
7957;SDS011;4024;52.172;5.378;2024-01-27T09:09:39;22.67;;;9.53;;
7957;SDS011;4024;52.172;5.378;2024-01-27T09:12:05;20.10;;;10.00;;
7957;SDS011;4024;52.172;5.378;2024-01-27T09:14:31;24.07;;;10.17;;
7957;SDS011;4024;52.172;5.378;2024-01-27T09:16:59;18.03;;;9.63;;
7957;SDS011;4024;52.172;5.378;2024-01-27T09:19:25;17.40;;;9.13;;
7957;SDS011;4024;52.172;5.378;2024-01-27T09:21:50;18.13;;;9.40;;
7957;SDS011;4024;52.172;5.378;2024-01-27T09:24:16;19.80;;;9.23;;
7957;SDS011;4024;52.172;5.378;2024-01-27T09:26:41;20.20;;;8.87;;
7957;SDS011;4024;52.172;5.378;2024-01-27T09:29:07;20.47;;;9.10;;
7957;SDS011;4024;52.172;5.378;2024-01-27T09:31:34;18.97;;;9.60;;
7957;SDS011;4024;52.172;5.378;2024-01-27T09:33:59;21.13;;;9.87;;
7957;SDS011;4024;52.172;5.378;2024-01-27T09:36:25;17.67;;;9.57;;
7957;SDS011;4024;52.172;5.378;2024-01-27T09:38:51;21.30;;;10.27;;
7957;SDS011;4024;52.172;5.378;2024-01-27T09:41:17;25.80;;;10.23;;
7957;SDS011;4024;52.172;5.378;2024-01-27T09:43:44;20.37;;;9.30;;
7957;SDS011;4024;52.172;5.378;2024-01-27T09:46:14;18.53;;;10.50;;
7957;SDS011;4024;52.172;5.378;2024-01-27T09:48:40;16.90;;;9.70;;
7957;SDS011;4024;52.172;5.378;2024-01-27T09:51:07;19.00;;;9.67;;
7957;SDS011;4024;52.172;5.378;2024-01-27T09:53:34;18.97;;;10.43;;
7957;SDS011;4024;52.172;5.378;2024-01-27T09:56:00;23.43;;;10.20;;
7957;SDS011;4024;52.172;5.378;2024-01-27T09:58:29;20.20;;;10.50;;
7957;SDS011;4024;52.172;5.378;2024-01-27T10:00:56;24.97;;;10.83;;
7957;SDS011;4024;52.172;5.378;2024-01-27T10:03:24;25.80;;;10.97;;
7957;SDS011;4024;52.172;5.378;2024-01-27T10:05:55;24.53;;;11.30;;
7957;SDS011;4024;52.172;5.378;2024-01-27T10:08:22;22.27;;;10.50;;
7957;SDS011;4024;52.172;5.378;2024-01-27T10:10:53;19.40;;;10.77;;
7957;SDS011;4024;52.172;5.378;2024-01-27T10:13:23;26.03;;;10.30;;
7957;SDS011;4024;52.172;5.378;2024-01-27T10:16:01;20.47;;;9.57;;
7957;SDS011;4024;52.172;5.378;2024-01-27T10:18:27;20.87;;;9.80;;
7957;SDS011;4024;52.172;5.378;2024-01-27T10:20:53;19.03;;;10.20;;
7957;SDS011;4024;52.172;5.378;2024-01-27T10:23:19;31.83;;;10.80;;
7957;SDS011;4024;52.172;5.378;2024-01-27T10:25:44;20.47;;;10.67;;
7957;SDS011;4024;52.172;5.378;2024-01-27T10:28:10;20.87;;;9.57;;
7957;SDS011;4024;52.172;5.378;2024-01-27T10:30:36;27.90;;;11.13;;
7957;SDS011;4024;52.172;5.378;2024-01-27T10:33:02;19.07;;;10.20;;
7957;SDS011;4024;52.172;5.378;2024-01-27T10:35:28;22.23;;;10.10;;
7957;SDS011;4024;52.172;5.378;2024-01-27T10:37:54;17.20;;;9.73;;
7957;SDS011;4024;52.172;5.378;2024-01-27T10:40:22;18.30;;;10.70;;
7957;SDS011;4024;52.172;5.378;2024-01-27T10:43:09;21.37;;;10.53;;
7957;SDS011;4024;52.172;5.378;2024-01-27T10:45:36;20.40;;;10.13;;
7957;SDS011;4024;52.172;5.378;2024-01-27T10:48:03;21.23;;;10.37;;
7957;SDS011;4024;52.172;5.378;2024-01-27T10:50:31;20.00;;;10.17;;
7957;SDS011;4024;52.172;5.378;2024-01-27T10:53:04;18.83;;;9.43;;
7957;SDS011;4024;52.172;5.378;2024-01-27T10:55:42;22.07;;;9.93;;
7957;SDS011;4024;52.172;5.378;2024-01-27T10:58:10;18.53;;;9.53;;
7957;SDS011;4024;52.172;5.378;2024-01-27T11:00:37;22.27;;;9.53;;
7957;SDS011;4024;52.172;5.378;2024-01-27T11:03:05;21.60;;;10.37;;
7957;SDS011;4024;52.172;5.378;2024-01-27T11:05:33;22.90;;;9.80;;
7957;SDS011;4024;52.172;5.378;2024-01-27T11:08:01;22.57;;;11.00;;
7957;SDS011;4024;52.172;5.378;2024-01-27T11:10:29;27.90;;;10.10;;
7957;SDS011;4024;52.172;5.378;2024-01-27T11:13:00;22.43;;;11.07;;
7957;SDS011;4024;52.172;5.378;2024-01-27T11:15:28;17.73;;;10.00;;
7957;SDS011;4024;52.172;5.378;2024-01-27T11:17:56;20.93;;;9.67;;
7957;SDS011;4024;52.172;5.378;2024-01-27T11:20:24;19.20;;;9.27;;
7957;SDS011;4024;52.172;5.378;2024-01-27T11:22:50;19.73;;;9.10;;
7957;SDS011;4024;52.172;5.378;2024-01-27T11:25:17;19.77;;;8.40;;
7957;SDS011;4024;52.172;5.378;2024-01-27T11:27:44;16.30;;;8.73;;
7957;SDS011;4024;52.172;5.378;2024-01-27T11:30:29;16.17;;;8.70;;
7957;SDS011;4024;52.172;5.378;2024-01-27T11:33:00;19.87;;;8.27;;
7957;SDS011;4024;52.172;5.378;2024-01-27T11:35:26;18.60;;;8.03;;
7957;SDS011;4024;52.172;5.378;2024-01-27T11:37:52;19.37;;;8.73;;
7957;SDS011;4024;52.172;5.378;2024-01-27T11:40:19;17.60;;;9.33;;
7957;SDS011;4024;52.172;5.378;2024-01-27T11:42:53;21.33;;;8.83;;
7957;SDS011;4024;52.172;5.378;2024-01-27T11:45:39;22.70;;;8.87;;
7957;SDS011;4024;52.172;5.378;2024-01-27T11:48:04;16.00;;;8.73;;
7957;SDS011;4024;52.172;5.378;2024-01-27T11:50:31;18.03;;;8.63;;
7957;SDS011;4024;52.172;5.378;2024-01-27T11:52:57;17.43;;;8.43;;
7957;SDS011;4024;52.172;5.378;2024-01-27T11:55:22;21.53;;;8.40;;
7957;SDS011;4024;52.172;5.378;2024-01-27T11:57:48;20.47;;;8.13;;
7957;SDS011;4024;52.172;5.378;2024-01-27T12:00:14;21.07;;;7.77;;
7957;SDS011;4024;52.172;5.378;2024-01-27T12:02:39;19.00;;;8.13;;
7957;SDS011;4024;52.172;5.378;2024-01-27T12:05:06;17.60;;;7.47;;
7957;SDS011;4024;52.172;5.378;2024-01-27T12:07:33;19.43;;;7.43;;
7957;SDS011;4024;52.172;5.378;2024-01-27T12:09:59;18.90;;;7.63;;
7957;SDS011;4024;52.172;5.378;2024-01-27T12:12:24;17.40;;;7.80;;
7957;SDS011;4024;52.172;5.378;2024-01-27T12:14:50;21.00;;;8.40;;
7957;SDS011;4024;52.172;5.378;2024-01-27T12:17:17;18.43;;;7.60;;
7957;SDS011;4024;52.172;5.378;2024-01-27T12:19:47;19.23;;;7.70;;
7957;SDS011;4024;52.172;5.378;2024-01-27T12:22:23;18.57;;;7.03;;
7957;SDS011;4024;52.172;5.378;2024-01-27T12:24:56;23.77;;;7.17;;
7957;SDS011;4024;52.172;5.378;2024-01-27T12:27:35;14.10;;;7.30;;
7957;SDS011;4024;52.172;5.378;2024-01-27T12:30:01;16.90;;;7.23;;
7957;SDS011;4024;52.172;5.378;2024-01-27T12:32:27;18.97;;;7.10;;
7957;SDS011;4024;52.172;5.378;2024-01-27T12:34:53;14.23;;;6.83;;
7957;SDS011;4024;52.172;5.378;2024-01-27T12:37:20;17.73;;;7.27;;
7957;SDS011;4024;52.172;5.378;2024-01-27T12:39:47;13.87;;;6.07;;
7957;SDS011;4024;52.172;5.378;2024-01-27T12:42:15;16.20;;;6.60;;
7957;SDS011;4024;52.172;5.378;2024-01-27T12:44:42;14.17;;;6.97;;
7957;SDS011;4024;52.172;5.378;2024-01-27T12:47:09;19.63;;;5.77;;
7957;SDS011;4024;52.172;5.378;2024-01-27T12:49:35;13.27;;;5.97;;
7957;SDS011;4024;52.172;5.378;2024-01-27T12:52:01;17.47;;;6.60;;
7957;SDS011;4024;52.172;5.378;2024-01-27T12:54:27;14.97;;;5.70;;
7957;SDS011;4024;52.172;5.378;2024-01-27T12:56:52;15.40;;;6.40;;
7957;SDS011;4024;52.172;5.378;2024-01-27T12:59:18;17.13;;;7.07;;
7957;SDS011;4024;52.172;5.378;2024-01-27T13:01:43;16.30;;;6.07;;
7957;SDS011;4024;52.172;5.378;2024-01-27T13:04:09;17.67;;;6.23;;
7957;SDS011;4024;52.172;5.378;2024-01-27T13:06:35;13.40;;;5.63;;
7957;SDS011;4024;52.172;5.378;2024-01-27T13:09:00;14.00;;;6.40;;
7957;SDS011;4024;52.172;5.378;2024-01-27T13:11:26;14.83;;;6.80;;
7957;SDS011;4024;52.172;5.378;2024-01-27T13:13:52;19.87;;;6.17;;
7957;SDS011;4024;52.172;5.378;2024-01-27T13:16:17;14.73;;;5.37;;
7957;SDS011;4024;52.172;5.378;2024-01-27T13:18:43;20.53;;;5.37;;
7957;SDS011;4024;52.172;5.378;2024-01-27T13:21:09;13.50;;;5.33;;
7957;SDS011;4024;52.172;5.378;2024-01-27T13:23:35;17.00;;;6.00;;
7957;SDS011;4024;52.172;5.378;2024-01-27T13:26:01;20.43;;;6.30;;
7957;SDS011;4024;52.172;5.378;2024-01-27T13:28:26;14.83;;;5.77;;
7957;SDS011;4024;52.172;5.378;2024-01-27T13:30:52;13.37;;;5.30;;
7957;SDS011;4024;52.172;5.378;2024-01-27T13:33:17;18.43;;;5.47;;
7957;SDS011;4024;52.172;5.378;2024-01-27T13:35:43;14.73;;;5.63;;
7957;SDS011;4024;52.172;5.378;2024-01-27T13:38:15;13.80;;;5.90;;
7957;SDS011;4024;52.172;5.378;2024-01-27T13:40:48;13.27;;;5.73;;
7957;SDS011;4024;52.172;5.378;2024-01-27T13:43:14;15.03;;;5.90;;
7957;SDS011;4024;52.172;5.378;2024-01-27T13:45:39;13.40;;;5.40;;
7957;SDS011;4024;52.172;5.378;2024-01-27T13:48:05;14.33;;;5.63;;
7957;SDS011;4024;52.172;5.378;2024-01-27T13:50:32;17.40;;;6.00;;
7957;SDS011;4024;52.172;5.378;2024-01-27T13:52:57;13.37;;;5.03;;
7957;SDS011;4024;52.172;5.378;2024-01-27T13:55:23;13.60;;;5.10;;
7957;SDS011;4024;52.172;5.378;2024-01-27T13:57:51;12.43;;;5.67;;
7957;SDS011;4024;52.172;5.378;2024-01-27T14:00:18;18.83;;;6.23;;
7957;SDS011;4024;52.172;5.378;2024-01-27T14:02:43;17.23;;;6.33;;
7957;SDS011;4024;52.172;5.378;2024-01-27T14:05:09;20.83;;;6.00;;
7957;SDS011;4024;52.172;5.378;2024-01-27T14:07:35;18.87;;;5.93;;
7957;SDS011;4024;52.172;5.378;2024-01-27T14:10:01;17.97;;;6.33;;
7957;SDS011;4024;52.172;5.378;2024-01-27T14:12:27;14.80;;;6.37;;
7957;SDS011;4024;52.172;5.378;2024-01-27T14:14:52;18.27;;;6.60;;
7957;SDS011;4024;52.172;5.378;2024-01-27T14:17:19;16.37;;;6.30;;
7957;SDS011;4024;52.172;5.378;2024-01-27T14:19:48;13.50;;;5.90;;
7957;SDS011;4024;52.172;5.378;2024-01-27T14:22:13;16.23;;;6.47;;
7957;SDS011;4024;52.172;5.378;2024-01-27T14:24:39;18.30;;;7.13;;
7957;SDS011;4024;52.172;5.378;2024-01-27T14:27:06;12.97;;;6.40;;
7957;SDS011;4024;52.172;5.378;2024-01-27T14:29:33;18.63;;;6.50;;
7957;SDS011;4024;52.172;5.378;2024-01-27T14:32:00;13.73;;;6.23;;
7957;SDS011;4024;52.172;5.378;2024-01-27T14:34:25;16.13;;;7.00;;
7957;SDS011;4024;52.172;5.378;2024-01-27T14:36:51;11.93;;;6.03;;
7957;SDS011;4024;52.172;5.378;2024-01-27T14:39:17;16.60;;;7.10;;
7957;SDS011;4024;52.172;5.378;2024-01-27T14:41:43;19.27;;;7.67;;
7957;SDS011;4024;52.172;5.378;2024-01-27T14:44:09;15.27;;;6.87;;
7957;SDS011;4024;52.172;5.378;2024-01-27T14:46:36;15.60;;;7.40;;
7957;SDS011;4024;52.172;5.378;2024-01-27T14:49:08;14.17;;;6.80;;
7957;SDS011;4024;52.172;5.378;2024-01-27T14:51:34;12.57;;;7.00;;
7957;SDS011;4024;52.172;5.378;2024-01-27T14:54:00;17.17;;;6.80;;